Currently 78°F in Simi Valley, California, USA
78°F
84°F / 48°F
6 mph W
0.00"
Tuesday, October 15, 2019 4:47 PM PDT

Simi Valley, California Climate Summary
Typical February Day

Normal High:    68.3°F (20.2°C)
Normal Low:    46.8°F (8.2°C)
Average:    56.6°F (13.7°C)

Hour    Temperature    Wind Speed    Humidity
12:00 AM    52°F (11°C)    2 mph    65%
1:00 AM    51°F (11°C)    3 mph    65%
2:00 AM    51°F (10°C)    3 mph    65%
3:00 AM    50°F (10°C)    3 mph    66%
4:00 AM    50°F (10°C)    3 mph    66%
5:00 AM    50°F (10°C)    3 mph    66%
6:00 AM    49°F (10°C)    3 mph    66%
7:00 AM    49°F (10°C)    3 mph    67%
8:00 AM    52°F (11°C)    3 mph    65%
9:00 AM    56°F (14°C)    3 mph    60%
10:00 AM    61°F (16°C)    4 mph    53%
11:00 AM    64°F (18°C)    4 mph    48%
12:00 PM    66°F (19°C)    4 mph    44%
1:00 PM    67°F (19°C)    5 mph    43%
2:00 PM    67°F (19°C)    5 mph    44%
3:00 PM    66°F (19°C)    5 mph    46%
4:00 PM    65°F (18°C)    5 mph    48%
5:00 PM    63°F (17°C)    4 mph    52%
6:00 PM    60°F (15°C)    3 mph    57%
7:00 PM    57°F (14°C)    3 mph    60%
8:00 PM    55°F (13°C)    2 mph    63%
9:00 PM    54°F (12°C)    3 mph    64%
10:00 PM    53°F (12°C)    3 mph    65%
11:00 PM    52°F (11°C)    2 mph    65%
 

The Simi Valley, California weather pages are a service of WeatherCurrents.
Copyright ©2019  WeatherCurrents. All rights reserved. - Submit questions and comments - Privacy Policy